createdAt,value
2019-02-02T00:00:54.772Z,30.53
2019-02-02T00:03:27.461Z,33.30
2019-02-02T00:05:59.514Z,30.10
2019-02-02T00:08:31.775Z,28.83
2019-02-02T00:11:03.997Z,32.87
2019-02-02T00:13:36.830Z,30.60
2019-02-02T00:16:08.918Z,26.07
2019-02-02T00:18:40.958Z,26.87
2019-02-02T00:21:13.114Z,33.77
2019-02-02T00:23:45.207Z,24.10
2019-02-02T00:26:17.188Z,21.30
2019-02-02T00:28:49.510Z,20.30
2019-02-02T00:31:21.532Z,29.10
2019-02-02T00:33:53.540Z,34.07
2019-02-02T00:36:25.536Z,31.33
2019-02-02T00:38:57.523Z,23.43
2019-02-02T00:41:29.515Z,25.87
2019-02-02T00:44:01.588Z,28.97
2019-02-02T00:46:33.580Z,26.40
2019-02-02T00:49:05.959Z,23.27
2019-02-02T00:51:37.955Z,29.67
2019-02-02T00:54:10.221Z,28.60
2019-02-02T00:56:42.467Z,28.60
2019-02-02T00:59:14.476Z,23.93
2019-02-02T01:01:46.468Z,26.53
2019-02-02T01:04:18.473Z,19.80
2019-02-02T01:06:50.535Z,19.87
2019-02-02T01:09:26.574Z,26.43
2019-02-02T01:11:58.564Z,21.53
2019-02-02T01:14:30.586Z,21.50
2019-02-02T01:17:02.848Z,23.53
2019-02-02T01:19:34.845Z,22.73
2019-02-02T01:22:07.233Z,29.97
2019-02-02T01:24:39.221Z,26.43
2019-02-02T01:27:11.276Z,24.27
2019-02-02T01:29:43.155Z,18.60
2019-02-02T01:32:15.190Z,25.67
2019-02-02T01:34:47.287Z,30.07
2019-02-02T01:37:19.349Z,32.27
2019-02-02T01:39:52.879Z,34.57
2019-02-02T01:42:24.867Z,27.53
2019-02-02T01:44:56.872Z,30.93
2019-02-02T01:47:28.860Z,25.50
2019-02-02T01:50:00.849Z,25.50
2019-02-02T01:52:34.491Z,34.00
2019-02-02T01:55:08.364Z,28.07
2019-02-02T01:57:40.355Z,28.77
2019-02-02T02:00:19.785Z,30.97
2019-02-02T02:02:51.872Z,36.43
2019-02-02T02:05:24.059Z,39.00
2019-02-02T02:07:56.153Z,32.33
2019-02-02T02:10:28.381Z,30.67
2019-02-02T02:13:00.366Z,31.50
2019-02-02T02:15:32.362Z,26.73
2019-02-02T02:18:04.566Z,28.00
2019-02-02T02:20:36.559Z,30.47
2019-02-02T02:23:08.541Z,36.37
2019-02-02T02:25:40.635Z,32.73
2019-02-02T02:28:12.727Z,30.97
2019-02-02T02:30:47.309Z,30.77
2019-02-02T02:33:18.494Z,28.67
2019-02-02T02:35:50.491Z,23.17
2019-02-02T02:38:22.739Z,29.17
2019-02-02T02:40:54.727Z,35.47
2019-02-02T02:43:26.717Z,37.50
2019-02-02T02:45:58.807Z,34.20
2019-02-02T02:48:30.790Z,37.87
2019-02-02T02:51:02.783Z,33.97
2019-02-02T02:53:34.765Z,45.53
2019-02-02T02:56:07.013Z,32.97
2019-02-02T02:58:41.541Z,41.33
2019-02-02T03:01:13.785Z,34.23
2019-02-02T03:03:45.767Z,34.23
2019-02-02T03:06:17.876Z,34.73
2019-02-02T03:08:50.058Z,40.03
2019-02-02T03:11:22.164Z,39.77
2019-02-02T03:13:54.346Z,39.23
2019-02-02T03:16:26.550Z,38.40
2019-02-02T03:18:58.714Z,33.87
2019-02-02T03:21:30.818Z,31.57
2019-02-02T03:24:02.923Z,32.37
2019-02-02T03:26:35.113Z,28.67
2019-02-02T03:29:07.310Z,31.80
2019-02-02T03:31:39.310Z,31.97
2019-02-02T03:34:11.370Z,39.17
2019-02-02T03:36:43.355Z,38.50
2019-02-02T03:39:16.082Z,32.17
2019-02-02T03:41:48.068Z,37.77
2019-02-02T03:44:20.074Z,30.03
2019-02-02T03:46:52.143Z,34.80
2019-02-02T03:49:24.986Z,36.67
2019-02-02T03:51:56.980Z,41.57
2019-02-02T03:54:29.038Z,39.30
2019-02-02T03:57:01.025Z,47.53
2019-02-02T03:59:33.084Z,41.23
2019-02-02T04:02:05.207Z,43.17
2019-02-02T04:04:37.592Z,38.17
2019-02-02T04:07:09.580Z,44.30
2019-02-02T04:09:41.642Z,47.73
2019-02-02T04:12:13.627Z,37.90
2019-02-02T04:14:45.611Z,40.83
2019-02-02T04:17:17.595Z,42.50
2019-02-02T04:19:49.587Z,40.73
2019-02-02T04:22:21.577Z,48.17
2019-02-02T04:24:53.573Z,48.60
2019-02-02T04:27:25.557Z,45.97
2019-02-02T04:29:57.622Z,45.33
2019-02-02T04:32:32.464Z,45.40
2019-02-02T04:35:04.653Z,36.53
2019-02-02T04:37:38.309Z,38.50
2019-02-02T04:40:11.564Z,32.17
2019-02-02T04:42:43.730Z,29.80
2019-02-02T04:45:16.421Z,38.00
2019-02-02T04:47:48.507Z,33.80
2019-02-02T04:50:20.672Z,31.60
2019-02-02T04:52:52.768Z,43.93
2019-02-02T04:55:24.823Z,34.40
2019-02-02T04:57:56.804Z,35.53
2019-02-02T05:00:29.220Z,37.97
2019-02-02T05:03:01.377Z,36.60
2019-02-02T05:05:33.365Z,43.10
2019-02-02T05:08:05.627Z,35.13
2019-02-02T05:10:37.612Z,45.60
2019-02-02T05:13:09.674Z,45.93
2019-02-02T05:15:41.665Z,44.80
2019-02-02T05:18:13.649Z,48.47
2019-02-02T05:20:45.637Z,45.33
2019-02-02T05:23:17.623Z,44.73
2019-02-02T05:25:49.682Z,48.93
2019-02-02T05:28:21.671Z,45.90
2019-02-02T05:30:53.683Z,41.87
2019-02-02T05:33:25.678Z,35.80
2019-02-02T05:35:57.665Z,39.50
2019-02-02T05:38:29.734Z,31.80
2019-02-02T05:41:01.720Z,37.93
2019-02-02T05:43:33.774Z,40.73
2019-02-02T05:46:06.085Z,35.83
2019-02-02T05:48:38.149Z,32.97
2019-02-02T05:51:10.131Z,37.87
2019-02-02T05:53:42.111Z,38.70
2019-02-02T05:56:14.442Z,40.63
2019-02-02T05:58:46.815Z,48.37
2019-02-02T06:01:20.346Z,43.20
2019-02-02T06:03:52.341Z,43.03
2019-02-02T06:06:24.379Z,46.83
2019-02-02T06:08:56.478Z,40.60
2019-02-02T06:11:28.468Z,37.43
2019-02-02T06:14:00.953Z,30.50
2019-02-02T06:16:34.052Z,33.80
2019-02-02T06:19:06.053Z,35.20
2019-02-02T06:21:38.107Z,34.90
2019-02-02T06:24:10.088Z,36.37
2019-02-02T06:26:42.079Z,33.90
2019-02-02T06:29:14.060Z,36.07
2019-02-02T06:31:46.179Z,34.77
2019-02-02T06:34:18.201Z,40.60
2019-02-02T06:36:50.265Z,45.03
2019-02-02T06:39:22.362Z,39.00
2019-02-02T06:41:54.411Z,41.30
2019-02-02T06:44:26.388Z,40.20
2019-02-02T06:46:58.377Z,37.23
2019-02-02T06:49:30.364Z,48.37
2019-02-02T06:52:02.352Z,45.37
2019-02-02T06:54:34.333Z,30.20
2019-02-02T06:57:06.328Z,41.10
2019-02-02T06:59:38.308Z,48.67
2019-02-02T07:02:10.294Z,38.40
2019-02-02T07:04:42.345Z,38.27
2019-02-02T07:07:14.328Z,45.43
2019-02-02T07:09:46.358Z,43.40
2019-02-02T07:12:19.815Z,42.23
2019-02-02T07:14:51.807Z,48.53
2019-02-02T07:17:23.869Z,42.27
2019-02-02T07:19:55.853Z,41.23
2019-02-02T07:22:27.836Z,36.50
2019-02-02T07:24:59.824Z,37.87
2019-02-02T07:27:31.889Z,51.27
2019-02-02T07:30:05.191Z,31.23
2019-02-02T07:32:37.460Z,35.27
2019-02-02T07:35:10.998Z,31.60
2019-02-02T07:37:43.183Z,33.53
2019-02-02T07:40:16.793Z,44.73
2019-02-02T07:42:49.063Z,38.23
2019-02-02T07:45:24.787Z,43.87
2019-02-02T07:47:56.762Z,44.00
2019-02-02T07:50:28.951Z,42.63
2019-02-02T07:53:00.934Z,50.63
2019-02-02T07:55:32.996Z,44.77
2019-02-02T07:58:05.075Z,36.23
2019-02-02T08:00:41.384Z,43.47
2019-02-02T08:03:13.765Z,45.37
2019-02-02T08:05:45.745Z,45.97
2019-02-02T08:08:17.740Z,38.30
2019-02-02T08:10:49.907Z,39.73
2019-02-02T08:13:21.912Z,34.80
2019-02-02T08:15:54.004Z,37.30
2019-02-02T08:18:26.157Z,36.07
2019-02-02T08:20:58.142Z,33.23
2019-02-02T08:23:30.129Z,41.37
2019-02-02T08:26:02.629Z,45.80
2019-02-02T08:28:34.719Z,38.03
2019-02-02T08:31:06.911Z,35.03
2019-02-02T08:33:38.964Z,49.83
2019-02-02T08:36:10.958Z,42.53
2019-02-02T08:38:42.940Z,37.47
2019-02-02T08:41:14.924Z,45.67
2019-02-02T08:43:46.912Z,38.10
2019-02-02T08:46:18.899Z,41.80
2019-02-02T08:48:50.880Z,48.63
2019-02-02T08:51:22.879Z,44.50
2019-02-02T08:53:54.858Z,51.50
2019-02-02T08:56:27.055Z,42.30
2019-02-02T08:58:59.080Z,43.93
2019-02-02T09:01:31.145Z,47.00
2019-02-02T09:04:03.128Z,52.47
2019-02-02T09:06:39.195Z,49.87
2019-02-02T09:09:10.749Z,37.23
2019-02-02T09:11:42.812Z,39.30
2019-02-02T09:14:14.793Z,39.03
2019-02-02T09:16:46.800Z,40.63
2019-02-02T09:19:18.783Z,41.63
2019-02-02T09:21:50.848Z,33.40
2019-02-02T09:24:22.828Z,45.27
2019-02-02T09:26:55.026Z,43.87
2019-02-02T09:29:27.026Z,37.03
2019-02-02T09:31:59.009Z,34.93
2019-02-02T09:34:30.983Z,42.40
2019-02-02T09:37:02.966Z,41.10
2019-02-02T09:39:34.949Z,33.77
2019-02-02T09:42:07.343Z,39.80
2019-02-02T09:44:39.327Z,47.03
2019-02-02T09:47:11.317Z,43.30
2019-02-02T09:49:43.380Z,47.10
2019-02-02T09:52:15.366Z,42.83
2019-02-02T09:54:47.363Z,38.73
2019-02-02T09:57:19.339Z,41.57
2019-02-02T09:59:51.330Z,31.50
2019-02-02T10:02:23.321Z,36.77
2019-02-02T10:04:55.304Z,48.87
2019-02-02T10:07:27.304Z,35.97
2019-02-02T10:09:59.367Z,32.47
2019-02-02T10:12:31.428Z,34.57
2019-02-02T10:15:03.415Z,40.07
2019-02-02T10:17:35.479Z,36.83
2019-02-02T10:20:09.805Z,34.63
2019-02-02T10:22:41.867Z,28.27
2019-02-02T10:25:16.944Z,44.30
2019-02-02T10:27:49.033Z,28.83
2019-02-02T10:30:39.103Z,39.60
2019-02-02T10:33:11.972Z,44.37
2019-02-02T10:35:43.916Z,38.73
2019-02-02T10:38:16.079Z,38.90
2019-02-02T10:40:48.247Z,35.80
2019-02-02T10:43:20.431Z,40.43
2019-02-02T10:45:52.405Z,25.73
2019-02-02T10:48:24.474Z,31.40
2019-02-02T10:50:56.458Z,36.00
2019-02-02T10:53:28.526Z,33.53
2019-02-02T10:56:00.508Z,39.90
2019-02-02T10:58:32.501Z,34.37
2019-02-02T11:01:05.094Z,33.53
2019-02-02T11:03:37.092Z,34.23
2019-02-02T11:06:09.198Z,37.70
2019-02-02T11:08:41.214Z,39.77
2019-02-02T11:11:13.243Z,41.37
2019-02-02T11:13:45.489Z,42.03
2019-02-02T11:16:17.574Z,39.60
2019-02-02T11:18:49.578Z,37.23
2019-02-02T11:21:21.713Z,38.30
2019-02-02T11:23:53.749Z,38.73
2019-02-02T11:26:26.300Z,34.70
2019-02-02T11:28:58.325Z,37.37
2019-02-02T11:31:30.377Z,37.27
2019-02-02T11:34:02.368Z,36.73
2019-02-02T11:36:34.343Z,35.60
2019-02-02T11:39:07.573Z,35.73
2019-02-02T11:41:39.561Z,36.10
2019-02-02T11:44:11.625Z,38.50
2019-02-02T11:46:43.603Z,40.10
2019-02-02T11:49:15.591Z,36.73
2019-02-02T11:51:47.567Z,36.33
2019-02-02T11:54:19.547Z,42.93
2019-02-02T11:56:51.532Z,36.50
2019-02-02T11:59:23.525Z,38.40
2019-02-02T12:01:55.506Z,37.37
2019-02-02T12:04:27.582Z,26.80
2019-02-02T12:06:59.637Z,34.83
2019-02-02T12:09:31.756Z,38.37
2019-02-02T12:12:04.414Z,40.37
2019-02-02T12:14:36.473Z,45.70
2019-02-02T12:17:08.571Z,43.93
2019-02-02T12:19:40.688Z,40.80
2019-02-02T12:22:12.843Z,30.77
2019-02-02T12:24:44.935Z,35.80
2019-02-02T12:27:17.027Z,21.90
2019-02-02T12:29:49.122Z,31.63
2019-02-02T12:32:26.711Z,37.00
2019-02-02T12:34:58.145Z,34.30
2019-02-02T12:37:30.129Z,64.77
2019-02-02T12:40:03.446Z,39.47
2019-02-02T12:42:35.430Z,36.27
2019-02-02T12:45:11.241Z,36.67
2019-02-02T12:47:43.228Z,38.53
2019-02-02T12:50:15.718Z,34.90
2019-02-02T12:52:47.897Z,42.97
2019-02-02T12:55:19.882Z,33.00
2019-02-02T12:57:51.868Z,65.37
2019-02-02T13:00:23.887Z,67.77
2019-02-02T13:02:55.948Z,64.03
2019-02-02T13:05:28.037Z,46.80
2019-02-02T13:08:00.126Z,73.30
2019-02-02T13:10:32.399Z,59.27
2019-02-02T13:13:04.390Z,54.43
2019-02-02T13:15:36.459Z,56.50
2019-02-02T13:18:08.518Z,73.20
2019-02-02T13:20:40.492Z,79.23
2019-02-02T13:23:12.512Z,50.23
2019-02-02T13:25:44.498Z,40.77
2019-02-02T13:28:16.561Z,48.03
2019-02-02T13:30:50.457Z,49.70
2019-02-02T13:33:22.542Z,58.10
2019-02-02T13:35:54.536Z,44.10
2019-02-02T13:38:26.519Z,45.60
2019-02-02T13:40:58.516Z,57.47
2019-02-02T13:43:30.566Z,48.93
2019-02-02T13:46:02.552Z,35.43
2019-02-02T13:48:34.536Z,49.37
2019-02-02T13:51:06.646Z,44.50
2019-02-02T13:53:38.637Z,50.77
2019-02-02T13:56:10.631Z,40.07
2019-02-02T13:58:42.611Z,46.10
2019-02-02T14:01:14.605Z,50.80
2019-02-02T14:03:46.588Z,37.47
2019-02-02T14:06:18.575Z,46.87
2019-02-02T14:08:50.551Z,33.77
2019-02-02T14:11:22.530Z,36.93
2019-02-02T14:13:54.513Z,27.23
2019-02-02T14:16:26.501Z,34.90
2019-02-02T14:18:58.483Z,23.57
2019-02-02T14:21:30.473Z,28.27
2019-02-02T14:24:02.452Z,30.10
2019-02-02T14:26:34.676Z,24.50
2019-02-02T14:29:06.869Z,27.90
2019-02-02T14:31:39.138Z,29.27
2019-02-02T14:34:11.177Z,28.40
2019-02-02T14:36:43.161Z,28.47
2019-02-02T14:39:15.147Z,24.17
2019-02-02T14:41:47.138Z,29.07
2019-02-02T14:44:19.260Z,20.00
2019-02-02T14:46:51.254Z,24.43
2019-02-02T14:49:23.311Z,18.40
2019-02-02T14:51:55.342Z,29.40
2019-02-02T14:54:27.423Z,24.57
2019-02-02T14:56:59.412Z,23.20
2019-02-02T14:59:31.405Z,17.60
2019-02-02T15:02:03.392Z,22.47
2019-02-02T15:04:35.371Z,22.60
2019-02-02T15:07:07.355Z,20.57
2019-02-02T15:09:39.375Z,21.73
2019-02-02T15:12:11.391Z,19.43
2019-02-02T15:14:43.880Z,19.13
2019-02-02T15:17:15.873Z,23.93
2019-02-02T15:19:47.930Z,20.63
2019-02-02T15:22:21.484Z,24.07
2019-02-02T15:24:53.469Z,21.87
2019-02-02T15:27:25.478Z,25.53
2019-02-02T15:29:57.464Z,24.67
2019-02-02T15:32:29.642Z,20.77
2019-02-02T15:35:01.742Z,24.87
2019-02-02T15:37:33.937Z,25.60
2019-02-02T15:40:07.247Z,23.37
2019-02-02T15:42:39.415Z,23.37
2019-02-02T15:45:13.838Z,23.40
2019-02-02T15:47:45.828Z,23.40
2019-02-02T15:50:18.113Z,21.87
2019-02-02T15:52:50.312Z,20.40
2019-02-02T15:55:24.014Z,24.00
2019-02-02T15:57:56.123Z,24.43
2019-02-02T16:00:36.998Z,24.33
2019-02-02T16:03:09.126Z,25.47
2019-02-02T16:05:41.183Z,27.03
2019-02-02T16:08:17.428Z,21.73
2019-02-02T16:10:49.507Z,22.50
2019-02-02T16:13:21.498Z,25.03
2019-02-02T16:15:53.481Z,23.37
2019-02-02T16:18:25.507Z,22.80
2019-02-02T16:20:57.485Z,16.43
2019-02-02T16:23:29.715Z,23.40
2019-02-02T16:26:01.879Z,21.90
2019-02-02T16:28:33.873Z,23.43
2019-02-02T16:31:05.934Z,31.83
2019-02-02T16:33:37.921Z,27.03
2019-02-02T16:36:09.911Z,20.93
2019-02-02T16:38:41.899Z,32.13
2019-02-02T16:41:13.959Z,31.27
2019-02-02T16:43:45.949Z,34.07
2019-02-02T16:46:18.054Z,24.43
2019-02-02T16:48:50.154Z,28.13
2019-02-02T16:51:22.166Z,23.50
2019-02-02T16:53:54.890Z,23.60
2019-02-02T16:56:26.874Z,24.87
2019-02-02T16:58:58.867Z,26.30
2019-02-02T17:01:30.845Z,24.83
2019-02-02T17:04:14.291Z,25.77
2019-02-02T17:06:36.507Z,23.70
2019-02-02T17:09:10.659Z,28.00
2019-02-02T17:11:42.640Z,29.07
2019-02-02T17:14:17.647Z,24.30
2019-02-02T17:16:48.306Z,16.67
2019-02-02T17:19:20.381Z,29.50
2019-02-02T17:21:53.841Z,27.03
2019-02-02T17:24:25.947Z,25.27
2019-02-02T17:26:57.932Z,22.77
2019-02-02T17:29:29.924Z,24.23
2019-02-02T17:32:02.224Z,33.20
2019-02-02T17:34:34.311Z,29.67
2019-02-02T17:37:06.484Z,31.53
2019-02-02T17:39:38.541Z,29.27
2019-02-02T17:42:10.895Z,22.93
2019-02-02T17:44:42.966Z,31.90
2019-02-02T17:47:14.943Z,24.23
2019-02-02T17:49:46.933Z,37.70
2019-02-02T17:52:20.342Z,38.93
2019-02-02T17:54:52.311Z,42.03
2019-02-02T17:57:26.751Z,42.33
2019-02-02T17:59:58.752Z,45.13
2019-02-02T18:02:30.931Z,39.57
2019-02-02T18:05:02.968Z,36.97
2019-02-02T18:07:34.952Z,34.30
2019-02-02T18:10:09.444Z,34.17
2019-02-02T18:12:41.425Z,36.53
2019-02-02T18:15:14.972Z,33.23
2019-02-02T18:17:46.991Z,41.33
2019-02-02T18:20:19.627Z,36.53
2019-02-02T18:22:51.648Z,36.63
2019-02-02T18:25:23.636Z,37.20
2019-02-02T18:27:55.592Z,36.90
2019-02-02T18:30:27.716Z,39.03
2019-02-02T18:33:00.109Z,45.07
2019-02-02T18:35:32.092Z,38.57
2019-02-02T18:38:04.085Z,31.57
2019-02-02T18:40:36.169Z,35.03
2019-02-02T18:43:08.227Z,35.10
2019-02-02T18:45:40.246Z,38.50
2019-02-02T18:48:12.469Z,37.43
2019-02-02T18:50:44.489Z,44.20
2019-02-02T18:53:17.043Z,33.80
2019-02-02T18:55:54.374Z,33.83
2019-02-02T18:58:27.337Z,38.10
2019-02-02T19:00:59.328Z,38.37
2019-02-02T19:03:31.389Z,33.03
2019-02-02T19:06:03.369Z,33.87
2019-02-02T19:08:35.359Z,38.57
2019-02-02T19:11:07.749Z,32.80
2019-02-02T19:13:39.733Z,35.40
2019-02-02T19:16:11.726Z,33.37
2019-02-02T19:18:43.703Z,36.23
2019-02-02T19:21:15.697Z,36.57
2019-02-02T19:23:47.754Z,22.37
2019-02-02T19:26:19.817Z,29.83
2019-02-02T19:28:51.796Z,24.73
2019-02-02T19:31:23.783Z,25.97
2019-02-02T19:33:55.759Z,22.20
2019-02-02T19:36:27.744Z,26.33
2019-02-02T19:38:59.945Z,27.93
2019-02-02T19:41:31.976Z,23.33
2019-02-02T19:44:04.058Z,26.07
2019-02-02T19:46:36.079Z,27.20
2019-02-02T19:49:08.137Z,30.93
2019-02-02T19:51:40.123Z,24.03
2019-02-02T19:54:12.114Z,20.87
2019-02-02T19:56:44.639Z,18.47
2019-02-02T19:59:16.766Z,24.23
2019-02-02T20:01:48.827Z,25.33
2019-02-02T20:04:20.808Z,25.70
2019-02-02T20:06:52.874Z,26.10
2019-02-02T20:09:24.867Z,31.03
2019-02-02T20:11:56.822Z,34.33
2019-02-02T20:14:28.875Z,21.33
2019-02-02T20:17:00.826Z,29.97
2019-02-02T20:19:32.813Z,27.17
2019-02-02T20:22:04.949Z,41.77
2019-02-02T20:24:37.006Z,40.87
2019-02-02T20:27:09.127Z,40.70
2019-02-02T20:29:41.106Z,27.80
2019-02-02T20:32:13.059Z,35.17
2019-02-02T20:34:45.117Z,35.17
2019-02-02T20:37:17.074Z,36.07
2019-02-02T20:39:49.058Z,43.50
2019-02-02T20:42:21.003Z,32.60
2019-02-02T20:44:52.989Z,35.10
2019-02-02T20:47:24.963Z,33.77
2019-02-02T20:49:57.326Z,33.07
2019-02-02T20:52:29.357Z,32.57
2019-02-02T20:55:01.521Z,39.53
2019-02-02T20:57:33.540Z,38.73
2019-02-02T21:00:06.384Z,32.43
2019-02-02T21:02:38.422Z,28.50
2019-02-02T21:05:10.482Z,41.13
2019-02-02T21:07:42.503Z,36.13
2019-02-02T21:10:18.036Z,31.57
2019-02-02T21:12:50.063Z,33.10
2019-02-02T21:15:22.333Z,40.93
2019-02-02T21:17:54.481Z,43.77
2019-02-02T21:20:28.851Z,39.77
2019-02-02T21:23:00.981Z,45.47
2019-02-02T21:25:34.066Z,38.87
2019-02-02T21:28:06.682Z,44.10
2019-02-02T21:30:38.861Z,41.33
2019-02-02T21:33:11.118Z,37.33
2019-02-02T21:35:43.166Z,35.63
2019-02-02T21:38:15.849Z,29.53
2019-02-02T21:40:47.909Z,26.13
2019-02-02T21:43:20.034Z,27.83
2019-02-02T21:45:52.101Z,25.13
2019-02-02T21:48:24.238Z,26.10
2019-02-02T21:50:56.406Z,23.93
2019-02-02T21:53:28.459Z,36.27
2019-02-02T21:56:00.528Z,32.73
2019-02-02T21:58:32.562Z,26.03
2019-02-02T22:01:04.727Z,22.27
2019-02-02T22:03:37.158Z,24.53
2019-02-02T22:06:15.500Z,24.73
2019-02-02T22:08:43.081Z,38.27
2019-02-02T22:11:15.136Z,30.43
2019-02-02T22:13:47.160Z,30.33
2019-02-02T22:16:19.233Z,24.33
2019-02-02T22:18:51.250Z,25.30
2019-02-02T22:21:23.232Z,33.43
2019-02-02T22:23:55.276Z,29.93
2019-02-02T22:26:27.343Z,29.47
2019-02-02T22:28:59.374Z,25.80
2019-02-02T22:31:31.441Z,24.17
2019-02-02T22:34:03.570Z,28.77
2019-02-02T22:36:35.635Z,28.93
2019-02-02T22:39:10.652Z,34.83
2019-02-02T22:41:42.635Z,28.23
2019-02-02T22:44:14.755Z,36.03
2019-02-02T22:46:46.810Z,33.90
2019-02-02T22:49:18.833Z,35.27
2019-02-02T22:51:50.896Z,29.87
2019-02-02T22:54:22.957Z,36.27
2019-02-02T22:56:54.947Z,28.80
2019-02-02T22:59:26.970Z,35.73
2019-02-02T23:02:09.993Z,28.30
2019-02-02T23:05:52.084Z,32.47
2019-02-02T23:08:52.550Z,35.87
2019-02-02T23:12:09.365Z,22.47
2019-02-02T23:15:56.396Z,27.23
2019-02-02T23:18:28.829Z,34.63
2019-02-02T23:21:00.849Z,36.60
2019-02-02T23:23:33.020Z,31.63
2019-02-02T23:26:12.350Z,32.67
2019-02-02T23:28:44.402Z,36.13
2019-02-02T23:31:16.732Z,34.20
2019-02-02T23:33:48.792Z,36.07
2019-02-02T23:36:20.848Z,38.20
2019-02-02T23:38:52.834Z,28.07
2019-02-02T23:41:24.858Z,27.10
2019-02-02T23:43:57.222Z,27.33
2019-02-02T23:46:29.275Z,31.03
2019-02-02T23:49:01.456Z,32.90
2019-02-02T23:51:33.623Z,32.50
2019-02-02T23:54:05.919Z,32.87
2019-02-02T23:56:38.055Z,34.10
2019-02-02T23:59:10.425Z,31.00
